createdAt,value
2022-11-19T00:02:10.139Z,36.53
2022-11-19T00:04:37.499Z,36.65
2022-11-19T00:07:05.981Z,36.10
2022-11-19T00:09:34.545Z,36.08
2022-11-19T00:12:20.504Z,35.08
2022-11-19T00:14:48.897Z,37.42
2022-11-19T00:17:16.305Z,34.50
2022-11-19T00:19:43.658Z,34.55
2022-11-19T00:22:11.787Z,36.95
2022-11-19T00:24:42.147Z,35.08
2022-11-19T00:27:10.978Z,35.63
2022-11-19T00:29:39.701Z,36.45
2022-11-19T00:32:08.199Z,33.97
2022-11-19T00:34:35.545Z,31.73
2022-11-19T00:37:03.100Z,31.00
2022-11-19T00:39:30.431Z,31.92
2022-11-19T00:41:58.146Z,33.35
2022-11-19T00:44:33.943Z,29.75
2022-11-19T00:47:05.018Z,34.42
2022-11-19T00:49:33.307Z,33.00
2022-11-19T00:52:00.705Z,31.42
2022-11-19T00:54:28.241Z,34.53
2022-11-19T00:56:55.758Z,32.95
2022-11-19T00:59:22.866Z,31.08
2022-11-19T01:01:51.667Z,29.83
2022-11-19T01:04:20.038Z,30.23
2022-11-19T01:06:49.467Z,30.52
2022-11-19T01:09:17.246Z,29.23
2022-11-19T01:11:44.907Z,29.45
2022-11-19T01:14:12.706Z,31.70
2022-11-19T01:16:41.738Z,32.03
2022-11-19T01:19:11.547Z,31.67
2022-11-19T01:21:39.181Z,32.47
2022-11-19T01:24:07.107Z,32.33
2022-11-19T01:26:34.834Z,31.95
2022-11-19T01:29:03.421Z,30.10
2022-11-19T01:31:31.158Z,31.20
2022-11-19T01:34:01.338Z,32.90
2022-11-19T01:36:30.190Z,34.03
2022-11-19T01:38:58.886Z,33.15
2022-11-19T01:41:33.380Z,33.10
2022-11-19T01:44:06.658Z,31.58
2022-11-19T01:49:10.989Z,37.22
2022-11-19T01:51:48.066Z,31.92
2022-11-19T01:54:43.418Z,34.97
2022-11-19T01:57:14.713Z,34.80
2022-11-19T01:59:43.785Z,36.72
2022-11-19T02:02:13.079Z,35.95
2022-11-19T02:04:41.306Z,38.97
2022-11-19T02:07:12.145Z,34.08
2022-11-19T02:09:41.522Z,37.30
2022-11-19T02:12:50.589Z,39.10
2022-11-19T02:15:29.547Z,35.92
2022-11-19T02:18:30.258Z,35.92
2022-11-19T02:21:40.819Z,37.15
2022-11-19T02:24:44.746Z,33.90
2022-11-19T02:27:29.235Z,35.22
2022-11-19T02:30:21.283Z,33.92
2022-11-19T02:32:59.178Z,35.53
2022-11-19T02:35:50.077Z,34.85
2022-11-19T02:38:41.867Z,37.15
2022-11-19T02:41:37.981Z,37.40
2022-11-19T02:45:19.147Z,36.28
2022-11-19T02:48:00.906Z,35.17
2022-11-19T02:50:42.079Z,34.83
2022-11-19T02:53:11.189Z,34.78
2022-11-19T02:55:39.859Z,37.55
2022-11-19T02:58:37.468Z,35.63
2022-11-19T03:01:26.833Z,33.95
2022-11-19T03:04:14.867Z,38.60
2022-11-19T03:06:42.140Z,37.47
2022-11-19T03:09:09.834Z,36.35
2022-11-19T03:11:37.147Z,37.50
2022-11-19T03:14:48.619Z,35.10
2022-11-19T03:17:32.388Z,35.60
2022-11-19T03:20:15.500Z,35.97
2022-11-19T03:22:58.638Z,35.40
2022-11-19T03:25:28.067Z,37.75
2022-11-19T03:28:02.355Z,35.40
2022-11-19T03:30:31.763Z,35.42
2022-11-19T03:33:07.146Z,38.50
2022-11-19T03:35:43.738Z,31.00
2022-11-19T03:38:17.178Z,37.33
2022-11-19T03:40:53.058Z,36.55
2022-11-19T03:43:24.699Z,37.80
2022-11-19T03:45:54.706Z,33.78
2022-11-19T03:48:23.786Z,32.13
2022-11-19T03:50:56.946Z,35.30
2022-11-19T03:53:24.786Z,35.85
2022-11-19T03:56:07.268Z,32.80
2022-11-19T03:58:42.920Z,33.03
2022-11-19T04:01:16.662Z,35.55
2022-11-19T04:04:03.679Z,37.08
2022-11-19T04:06:31.206Z,38.10
2022-11-19T04:08:58.688Z,32.20
2022-11-19T04:13:51.999Z,30.88
2022-11-19T04:16:19.479Z,33.33
2022-11-19T04:18:47.018Z,31.98
2022-11-19T04:21:14.458Z,32.00
2022-11-19T04:23:45.058Z,30.75
2022-11-19T04:26:18.658Z,29.13
2022-11-19T04:28:45.938Z,28.08
2022-11-19T04:31:17.653Z,27.45
2022-11-19T04:33:45.580Z,29.95
2022-11-19T04:36:12.939Z,28.50
2022-11-19T04:38:40.387Z,27.92
2022-11-19T04:41:08.980Z,25.95
2022-11-19T04:43:36.339Z,26.38
2022-11-19T04:46:04.937Z,26.33
2022-11-19T04:48:32.266Z,25.00
2022-11-19T04:50:59.699Z,24.98
2022-11-19T04:53:28.258Z,23.73
2022-11-19T04:55:55.657Z,24.20
2022-11-19T04:58:23.219Z,23.05
2022-11-19T05:00:51.666Z,25.65
2022-11-19T05:03:19.111Z,24.85
2022-11-19T05:05:47.660Z,25.08
2022-11-19T05:08:14.986Z,21.95
2022-11-19T05:10:44.786Z,21.90
2022-11-19T05:13:13.347Z,27.45
2022-11-19T05:15:40.499Z,22.58
2022-11-19T05:18:08.987Z,22.90
2022-11-19T05:20:36.467Z,24.00
2022-11-19T05:23:03.867Z,23.50
2022-11-19T05:25:32.384Z,23.60
2022-11-19T05:28:01.947Z,27.38
2022-11-19T05:30:29.418Z,24.63
2022-11-19T05:32:58.786Z,23.83
2022-11-19T05:35:26.298Z,24.83
2022-11-19T05:37:55.700Z,23.95
2022-11-19T05:40:23.498Z,25.65
2022-11-19T05:42:51.738Z,26.10
2022-11-19T05:45:20.226Z,25.08
2022-11-19T05:47:48.927Z,24.67
2022-11-19T05:50:17.698Z,23.60
2022-11-19T05:52:46.419Z,24.92
2022-11-19T05:55:21.156Z,26.63
2022-11-19T05:57:48.988Z,24.92
2022-11-19T06:00:18.460Z,27.85
2022-11-19T06:02:45.800Z,28.20
2022-11-19T06:05:13.099Z,25.25
2022-11-19T06:07:40.669Z,24.15
2022-11-19T06:10:14.778Z,27.02
2022-11-19T06:12:45.933Z,30.50
2022-11-19T06:15:15.298Z,31.60
2022-11-19T06:17:43.817Z,30.35
2022-11-19T06:20:11.579Z,30.75
2022-11-19T06:22:40.386Z,31.83
2022-11-19T06:25:08.271Z,31.95
2022-11-19T06:27:35.739Z,31.52
2022-11-19T06:30:03.629Z,29.98
2022-11-19T06:32:30.991Z,29.48
2022-11-19T06:34:58.502Z,29.75
2022-11-19T06:37:26.018Z,31.83
2022-11-19T06:39:54.547Z,30.00
2022-11-19T06:42:37.720Z,31.08
2022-11-19T06:45:11.418Z,32.95
2022-11-19T06:47:40.498Z,34.03
2022-11-19T06:50:10.629Z,31.67
2022-11-19T06:52:38.037Z,33.63
2022-11-19T06:55:06.831Z,32.22
2022-11-19T06:57:34.259Z,42.35
2022-11-19T07:00:08.419Z,36.90
2022-11-19T07:02:35.859Z,46.03
2022-11-19T07:05:02.861Z,40.47
2022-11-19T07:07:30.439Z,39.80
2022-11-19T07:09:58.779Z,38.38
2022-11-19T07:12:27.669Z,52.13
2022-11-19T07:14:59.736Z,33.75
2022-11-19T07:17:31.308Z,40.28
2022-11-19T07:19:58.819Z,45.28
2022-11-19T07:22:38.538Z,37.60
2022-11-19T07:25:06.507Z,38.75
2022-11-19T07:27:34.019Z,37.88
2022-11-19T07:30:04.506Z,38.38
2022-11-19T07:32:33.261Z,40.33
2022-11-19T07:35:02.667Z,35.67
2022-11-19T07:37:29.907Z,34.65
2022-11-19T07:39:57.458Z,36.63
2022-11-19T07:42:43.623Z,35.65
2022-11-19T07:45:22.304Z,35.85
2022-11-19T07:47:50.019Z,38.78
2022-11-19T07:50:18.210Z,35.35
2022-11-19T07:52:45.579Z,35.38
2022-11-19T07:55:12.906Z,33.83
2022-11-19T07:57:40.403Z,33.33
2022-11-19T08:00:08.907Z,37.47
2022-11-19T08:02:37.107Z,37.88
2022-11-19T08:05:13.059Z,35.72
2022-11-19T08:07:41.818Z,31.90
2022-11-19T08:10:10.741Z,38.30
2022-11-19T08:12:38.103Z,35.92
2022-11-19T08:15:05.993Z,35.30
2022-11-19T08:17:52.106Z,34.10
2022-11-19T08:20:20.760Z,33.80
2022-11-19T08:22:49.219Z,31.17
2022-11-19T08:25:16.778Z,37.63
2022-11-19T08:27:50.259Z,30.58
2022-11-19T08:30:17.498Z,33.42
2022-11-19T08:32:44.667Z,31.67
2022-11-19T08:35:11.739Z,33.15
2022-11-19T08:37:39.107Z,25.90
2022-11-19T08:40:07.029Z,26.63
2022-11-19T08:42:52.942Z,26.42
2022-11-19T08:45:22.538Z,25.25
2022-11-19T08:47:49.867Z,23.77
2022-11-19T08:50:17.386Z,22.17
2022-11-19T08:52:44.758Z,25.30
2022-11-19T08:55:11.728Z,20.95
2022-11-19T08:57:40.166Z,24.33
2022-11-19T09:00:08.320Z,22.95
2022-11-19T09:02:35.759Z,20.73
2022-11-19T09:05:03.158Z,19.30
2022-11-19T09:07:31.584Z,21.30
2022-11-19T09:09:58.686Z,21.30
2022-11-19T09:12:25.730Z,21.52
2022-11-19T09:14:52.877Z,20.75
2022-11-19T09:17:20.398Z,22.05
2022-11-19T09:19:48.441Z,16.73
2022-11-19T09:22:15.798Z,20.15
2022-11-19T09:24:42.838Z,20.15
2022-11-19T09:27:10.209Z,19.40
2022-11-19T09:29:37.647Z,20.45
2022-11-19T09:32:05.126Z,18.58
2022-11-19T09:34:32.638Z,18.92
2022-11-19T09:37:00.126Z,20.52
2022-11-19T09:39:27.519Z,20.17
2022-11-19T09:42:11.799Z,21.50
2022-11-19T09:45:00.959Z,19.42
2022-11-19T09:47:46.280Z,23.80
2022-11-19T09:50:31.606Z,19.50
2022-11-19T09:53:02.918Z,22.27
2022-11-19T09:55:35.085Z,23.70
2022-11-19T09:58:06.416Z,21.55
2022-11-19T10:00:34.728Z,21.65
2022-11-19T10:03:11.752Z,22.48
2022-11-19T10:06:07.038Z,23.83
2022-11-19T10:08:55.850Z,24.85
2022-11-19T10:11:38.012Z,24.33
2022-11-19T10:14:28.002Z,28.10
2022-11-19T10:17:04.641Z,24.63
2022-11-19T10:20:04.280Z,22.40
2022-11-19T10:22:40.286Z,22.40
2022-11-19T10:25:23.477Z,20.50
2022-11-19T10:27:57.598Z,20.23
2022-11-19T10:30:27.285Z,20.95
2022-11-19T10:33:01.922Z,20.13
2022-11-19T10:35:36.330Z,22.48
2022-11-19T10:38:07.958Z,22.35
2022-11-19T10:41:14.492Z,25.90
2022-11-19T10:44:07.798Z,21.95
2022-11-19T10:46:37.037Z,22.67
2022-11-19T10:49:11.048Z,25.75
2022-11-19T10:51:41.765Z,21.48
2022-11-19T10:54:30.694Z,24.08
2022-11-19T10:57:00.757Z,27.13
2022-11-19T10:59:33.240Z,19.90
2022-11-19T11:02:46.046Z,21.23
2022-11-19T11:05:17.077Z,24.00
2022-11-19T11:07:54.530Z,20.35
2022-11-19T11:10:31.404Z,24.77
2022-11-19T11:13:25.278Z,25.42
2022-11-19T11:18:27.729Z,19.83
2022-11-19T11:21:00.742Z,20.85
2022-11-19T11:23:33.572Z,18.90
2022-11-19T11:26:10.959Z,40.97
2022-11-19T11:28:58.486Z,39.47
2022-11-19T11:31:39.807Z,28.02
2022-11-19T11:34:36.038Z,24.00
2022-11-19T11:37:10.557Z,36.15
2022-11-19T11:39:46.602Z,23.67
2022-11-19T11:42:21.958Z,21.92
2022-11-19T11:44:59.758Z,19.20
2022-11-19T11:47:33.848Z,23.00
2022-11-19T11:50:21.918Z,23.13
2022-11-19T11:52:54.841Z,20.90
2022-11-19T11:55:26.000Z,21.42
2022-11-19T11:58:05.171Z,21.60
2022-11-19T12:00:46.958Z,18.45
2022-11-19T12:03:22.730Z,22.20
2022-11-19T12:06:19.358Z,15.13
2022-11-19T12:09:16.304Z,17.90
2022-11-19T12:12:26.471Z,17.83
2022-11-19T12:15:27.066Z,16.65
2022-11-19T12:18:22.858Z,17.38
2022-11-19T12:21:48.782Z,17.85
2022-11-19T12:24:34.899Z,14.80
2022-11-19T12:27:05.227Z,17.10
2022-11-19T12:29:53.433Z,16.63
2022-11-19T12:32:50.039Z,17.48
2022-11-19T12:35:31.881Z,16.15
2022-11-19T12:38:26.257Z,15.07
2022-11-19T12:41:08.238Z,14.77
2022-11-19T12:43:51.758Z,15.75
2022-11-19T12:49:23.778Z,13.85
2022-11-19T12:52:28.824Z,13.07
2022-11-19T12:55:15.083Z,19.20
2022-11-19T12:58:01.932Z,14.27
2022-11-19T13:00:40.812Z,14.07
2022-11-19T13:03:21.879Z,16.17
2022-11-19T13:06:26.118Z,17.77
2022-11-19T13:09:07.638Z,16.25
2022-11-19T13:11:45.839Z,19.17
2022-11-19T13:14:41.878Z,26.73
2022-11-19T13:17:20.478Z,19.40
2022-11-19T13:19:54.166Z,19.10
2022-11-19T13:22:34.295Z,16.13
2022-11-19T13:25:50.198Z,16.00
2022-11-19T13:28:36.361Z,19.15
2022-11-19T13:31:13.797Z,17.38
2022-11-19T13:33:50.398Z,18.05
2022-11-19T13:36:44.758Z,17.95
2022-11-19T13:39:23.231Z,14.98
2022-11-19T13:42:12.247Z,20.75
2022-11-19T13:44:46.157Z,17.95
2022-11-19T13:47:34.844Z,16.83
2022-11-19T13:50:12.206Z,34.90
2022-11-19T13:52:46.920Z,18.20
2022-11-19T13:55:35.479Z,16.83
2022-11-19T13:58:27.238Z,17.10
2022-11-19T14:01:10.140Z,16.67
2022-11-19T14:04:04.531Z,18.00
2022-11-19T14:06:56.283Z,17.42
2022-11-19T14:09:36.838Z,27.58
2022-11-19T14:12:29.367Z,29.40
2022-11-19T14:15:51.879Z,19.90
2022-11-19T14:18:48.966Z,15.85
2022-11-19T14:21:43.233Z,16.92
2022-11-19T14:24:45.320Z,16.45
2022-11-19T14:27:18.718Z,16.23
2022-11-19T14:32:13.840Z,17.95
2022-11-19T14:35:09.958Z,17.65
2022-11-19T14:37:56.118Z,16.38
2022-11-19T14:40:31.159Z,17.63
2022-11-19T14:43:20.424Z,20.05
2022-11-19T14:46:14.318Z,16.65
2022-11-19T14:51:15.367Z,18.52
2022-11-19T14:53:56.131Z,19.20
2022-11-19T14:56:27.608Z,20.67
2022-11-19T14:59:10.337Z,21.83
2022-11-19T15:02:07.491Z,23.20
2022-11-19T15:04:44.899Z,19.05
2022-11-19T15:07:35.462Z,20.00
2022-11-19T15:10:11.599Z,18.67
2022-11-19T15:13:04.299Z,24.35
2022-11-19T15:15:39.968Z,21.38
2022-11-19T15:18:54.007Z,20.77
2022-11-19T15:21:30.358Z,21.65
2022-11-19T15:24:25.998Z,20.23
2022-11-19T15:27:25.718Z,20.05
2022-11-19T15:30:20.609Z,19.27
2022-11-19T15:33:13.851Z,25.63
2022-11-19T15:36:00.326Z,55.65
2022-11-19T15:38:42.878Z,90.05
2022-11-19T15:41:17.646Z,114.75
2022-11-19T15:43:52.077Z,90.65
2022-11-19T15:46:30.592Z,79.20
2022-11-19T15:49:19.052Z,75.43
2022-11-19T15:52:00.238Z,66.03
2022-11-19T15:54:30.078Z,63.97
2022-11-19T15:57:23.978Z,65.25
2022-11-19T16:00:03.889Z,68.22
2022-11-19T16:02:35.280Z,52.70
2022-11-19T16:05:06.177Z,30.10
2022-11-19T16:07:36.173Z,29.20
2022-11-19T16:10:08.216Z,32.40
2022-11-19T16:13:15.461Z,24.73
2022-11-19T16:16:18.959Z,31.92
2022-11-19T16:18:52.927Z,26.00
2022-11-19T16:21:27.248Z,28.67
2022-11-19T16:24:17.358Z,26.90
2022-11-19T16:26:45.368Z,26.10
2022-11-19T16:29:36.518Z,29.75
2022-11-19T16:32:09.440Z,29.65
2022-11-19T16:34:39.519Z,29.27
2022-11-19T16:37:07.172Z,29.95
2022-11-19T16:39:34.927Z,35.10
2022-11-19T16:42:18.007Z,33.15
2022-11-19T16:44:54.407Z,35.42
2022-11-19T16:47:40.559Z,37.33
2022-11-19T16:50:42.385Z,38.95
2022-11-19T16:53:47.250Z,43.80
2022-11-19T16:56:17.038Z,45.47
2022-11-19T16:58:46.878Z,50.35
2022-11-19T17:01:18.404Z,45.90
2022-11-19T17:03:46.019Z,44.42
2022-11-19T17:06:26.085Z,45.42
2022-11-19T17:09:01.329Z,44.75
2022-11-19T17:12:10.409Z,44.08
2022-11-19T17:14:47.330Z,43.40
2022-11-19T17:17:35.580Z,42.75
2022-11-19T17:20:24.286Z,38.55
2022-11-19T17:22:51.930Z,41.97
2022-11-19T17:25:20.159Z,42.03
2022-11-19T17:27:53.608Z,44.25
2022-11-19T17:30:31.517Z,38.92
2022-11-19T17:33:05.686Z,45.20
2022-11-19T17:35:52.000Z,42.00
2022-11-19T17:38:31.598Z,42.15
2022-11-19T17:41:01.007Z,43.03
2022-11-19T17:43:53.519Z,45.20
2022-11-19T17:46:24.401Z,42.60
2022-11-19T17:48:53.650Z,44.47
2022-11-19T17:51:23.638Z,39.28
2022-11-19T17:53:52.738Z,40.95
2022-11-19T17:56:27.359Z,42.17
2022-11-19T17:58:56.159Z,38.97
2022-11-19T18:01:23.973Z,38.17
2022-11-19T18:03:51.606Z,38.65
2022-11-19T18:06:20.059Z,39.83
2022-11-19T18:08:50.967Z,44.47
2022-11-19T18:11:22.847Z,41.22
2022-11-19T18:13:56.009Z,44.50
2022-11-19T18:18:57.399Z,44.15
2022-11-19T18:21:29.199Z,45.55
2022-11-19T18:24:00.572Z,46.03
2022-11-19T18:26:38.694Z,43.83
2022-11-19T18:29:09.367Z,46.88
2022-11-19T18:31:45.526Z,44.28
2022-11-19T18:34:25.463Z,47.63
2022-11-19T18:36:55.130Z,46.72
2022-11-19T18:39:25.419Z,47.00
2022-11-19T18:41:55.278Z,49.42
2022-11-19T18:44:35.240Z,47.53
2022-11-19T18:47:12.397Z,51.70
2022-11-19T18:49:42.708Z,45.90
2022-11-19T18:52:15.841Z,48.97
2022-11-19T18:57:14.149Z,50.03
2022-11-19T18:59:42.367Z,49.92
2022-11-19T19:02:13.041Z,48.15
2022-11-19T19:04:48.332Z,52.78
2022-11-19T19:07:22.218Z,58.28
2022-11-19T19:09:52.888Z,50.15
2022-11-19T19:12:21.960Z,51.15
2022-11-19T19:14:56.663Z,53.70
2022-11-19T19:17:26.306Z,55.90
2022-11-19T19:19:58.540Z,62.40
2022-11-19T19:22:32.121Z,58.90
2022-11-19T19:25:02.728Z,60.33
2022-11-19T19:27:38.807Z,65.70
2022-11-19T19:30:06.839Z,67.00
2022-11-19T19:32:40.410Z,77.32
2022-11-19T19:35:08.158Z,78.93
2022-11-19T19:37:43.318Z,80.45
2022-11-19T19:40:11.968Z,85.80
2022-11-19T19:42:41.409Z,83.75
2022-11-19T19:45:10.698Z,73.55
2022-11-19T19:47:37.959Z,69.95
2022-11-19T19:50:06.046Z,69.38
2022-11-19T19:52:33.727Z,68.18
2022-11-19T19:55:03.061Z,71.10
2022-11-19T19:57:31.366Z,70.35
2022-11-19T20:00:01.721Z,69.53
2022-11-19T20:02:30.958Z,68.75
2022-11-19T20:05:00.598Z,65.30
2022-11-19T20:07:33.059Z,65.57
2022-11-19T20:10:07.888Z,63.17
2022-11-19T20:12:54.808Z,63.17
2022-11-19T20:15:30.376Z,59.80
2022-11-19T20:18:00.415Z,61.65
2022-11-19T20:20:28.695Z,61.03
2022-11-19T20:22:59.998Z,68.18
2022-11-19T20:25:30.702Z,64.55
2022-11-19T20:28:01.357Z,63.42
2022-11-19T20:30:33.215Z,64.65
2022-11-19T20:33:04.738Z,69.72
2022-11-19T20:35:37.358Z,63.42
2022-11-19T20:38:08.423Z,63.67
2022-11-19T20:40:39.849Z,70.85
2022-11-19T20:43:31.641Z,71.03
2022-11-19T20:46:13.038Z,68.50
2022-11-19T20:48:44.135Z,67.57
2022-11-19T20:51:15.058Z,75.78
2022-11-19T20:53:46.059Z,79.50
2022-11-19T20:56:17.865Z,74.30
2022-11-19T20:58:48.480Z,86.28
2022-11-19T21:01:16.526Z,88.20
2022-11-19T21:03:46.247Z,89.75
2022-11-19T21:06:14.805Z,103.85
2022-11-19T21:08:42.399Z,107.05
2022-11-19T21:11:12.448Z,94.47
2022-11-19T21:13:40.957Z,104.28
2022-11-19T21:16:20.071Z,116.63
2022-11-19T21:18:47.958Z,128.60
2022-11-19T21:21:17.038Z,94.68
2022-11-19T21:23:46.597Z,98.18
2022-11-19T21:26:14.618Z,106.57
2022-11-19T21:28:44.801Z,85.47
2022-11-19T21:31:16.365Z,94.78
2022-11-19T21:33:49.975Z,99.55
2022-11-19T21:36:17.838Z,104.40
2022-11-19T21:38:45.277Z,115.38
2022-11-19T21:41:13.047Z,102.70
2022-11-19T21:43:41.168Z,106.75
2022-11-19T21:46:08.767Z,96.00
2022-11-19T21:48:39.363Z,107.20
2022-11-19T21:51:09.079Z,115.95
2022-11-19T21:53:36.687Z,109.75
2022-11-19T21:56:04.409Z,111.53
2022-11-19T21:58:31.798Z,108.88
2022-11-19T22:01:04.601Z,114.32
2022-11-19T22:03:33.569Z,145.68
2022-11-19T22:06:09.758Z,113.22
2022-11-19T22:08:40.277Z,104.00
2022-11-19T22:11:27.438Z,96.78
2022-11-19T22:13:59.198Z,92.78
2022-11-19T22:16:27.762Z,97.20
2022-11-19T22:18:55.277Z,104.65
2022-11-19T22:21:22.758Z,96.50
2022-11-19T22:24:00.062Z,100.18
2022-11-19T22:26:27.679Z,104.85
2022-11-19T22:28:56.838Z,100.82
2022-11-19T22:31:25.295Z,98.75
2022-11-19T22:33:54.105Z,99.45
2022-11-19T22:36:22.562Z,96.18
2022-11-19T22:38:51.639Z,95.75
2022-11-19T22:41:21.159Z,93.88
2022-11-19T22:43:49.518Z,107.78
2022-11-19T22:46:17.878Z,88.68
2022-11-19T22:48:45.319Z,85.78
2022-11-19T22:51:21.958Z,87.50
2022-11-19T22:53:51.799Z,97.85
2022-11-19T22:56:22.319Z,92.68
2022-11-19T22:58:50.208Z,86.95
2022-11-19T23:01:17.854Z,85.35
2022-11-19T23:03:47.766Z,90.50
2022-11-19T23:06:15.806Z,82.13
2022-11-19T23:08:44.492Z,88.47
2022-11-19T23:11:13.717Z,91.65
2022-11-19T23:13:42.998Z,96.90
2022-11-19T23:16:14.049Z,91.97
2022-11-19T23:18:47.038Z,87.18
2022-11-19T23:23:43.478Z,97.35
2022-11-19T23:26:21.720Z,93.18
2022-11-19T23:28:49.518Z,96.05
2022-11-19T23:31:31.941Z,100.65
2022-11-19T23:34:06.369Z,94.45
2022-11-19T23:36:37.131Z,103.53
2022-11-19T23:39:05.719Z,97.50
2022-11-19T23:41:34.637Z,116.53
2022-11-19T23:44:03.160Z,116.93
2022-11-19T23:46:37.045Z,110.85
2022-11-19T23:49:05.895Z,116.82
2022-11-19T23:51:40.408Z,119.93
2022-11-19T23:54:08.757Z,119.60
2022-11-19T23:56:36.618Z,120.38
2022-11-19T23:59:06.730Z,120.93
